sensor_id;sensor_type;location;lat;lon;timestamp;P1;durP1;ratioP1;P2;durP2;ratioP2
52414;SDS011;38340;52.964;6.086;2022-10-17T00:01:09;11.70;;;5.32;;
52414;SDS011;38340;52.964;6.086;2022-10-17T00:03:36;10.65;;;5.60;;
52414;SDS011;38340;52.964;6.086;2022-10-17T00:06:06;12.05;;;5.65;;
52414;SDS011;38340;52.964;6.086;2022-10-17T00:08:35;15.65;;;5.43;;
52414;SDS011;38340;52.964;6.086;2022-10-17T00:11:05;11.30;;;5.60;;
52414;SDS011;38340;52.964;6.086;2022-10-17T00:13:33;12.18;;;5.68;;
52414;SDS011;38340;52.964;6.086;2022-10-17T00:15:59;9.90;;;5.32;;
52414;SDS011;38340;52.964;6.086;2022-10-17T00:18:25;13.38;;;5.25;;
52414;SDS011;38340;52.964;6.086;2022-10-17T00:20:51;12.52;;;4.97;;
52414;SDS011;38340;52.964;6.086;2022-10-17T00:23:17;14.68;;;6.22;;
52414;SDS011;38340;52.964;6.086;2022-10-17T00:25:43;16.50;;;5.50;;
52414;SDS011;38340;52.964;6.086;2022-10-17T00:28:09;10.38;;;5.05;;
52414;SDS011;38340;52.964;6.086;2022-10-17T00:30:36;11.50;;;5.38;;
52414;SDS011;38340;52.964;6.086;2022-10-17T00:33:02;10.02;;;5.18;;
52414;SDS011;38340;52.964;6.086;2022-10-17T00:35:27;14.48;;;5.47;;
52414;SDS011;38340;52.964;6.086;2022-10-17T00:37:53;11.60;;;5.63;;
52414;SDS011;38340;52.964;6.086;2022-10-17T00:40:19;11.52;;;5.20;;
52414;SDS011;38340;52.964;6.086;2022-10-17T00:42:45;14.30;;;5.78;;
52414;SDS011;38340;52.964;6.086;2022-10-17T00:45:29;12.45;;;6.10;;
52414;SDS011;38340;52.964;6.086;2022-10-17T00:48:00;9.32;;;5.97;;
52414;SDS011;38340;52.964;6.086;2022-10-17T00:50:30;9.98;;;5.55;;
52414;SDS011;38340;52.964;6.086;2022-10-17T00:52:59;14.65;;;5.95;;
52414;SDS011;38340;52.964;6.086;2022-10-17T00:55:27;10.90;;;6.40;;
52414;SDS011;38340;52.964;6.086;2022-10-17T00:57:56;12.90;;;5.85;;
52414;SDS011;38340;52.964;6.086;2022-10-17T01:00:24;9.73;;;5.60;;
52414;SDS011;38340;52.964;6.086;2022-10-17T01:02:50;10.30;;;6.32;;
52414;SDS011;38340;52.964;6.086;2022-10-17T01:05:16;11.35;;;5.80;;
52414;SDS011;38340;52.964;6.086;2022-10-17T01:07:43;17.88;;;6.57;;
52414;SDS011;38340;52.964;6.086;2022-10-17T01:10:09;15.38;;;6.18;;
52414;SDS011;38340;52.964;6.086;2022-10-17T01:12:42;11.88;;;6.18;;
52414;SDS011;38340;52.964;6.086;2022-10-17T01:30:09;15.52;;;7.03;;
52414;SDS011;38340;52.964;6.086;2022-10-17T01:32:48;15.00;;;7.30;;
52414;SDS011;38340;52.964;6.086;2022-10-17T01:35:34;11.10;;;6.82;;
52414;SDS011;38340;52.964;6.086;2022-10-17T01:38:12;12.38;;;7.15;;
52414;SDS011;38340;52.964;6.086;2022-10-17T01:40:50;12.32;;;6.82;;
52414;SDS011;38340;52.964;6.086;2022-10-17T01:43:25;9.07;;;6.32;;
52414;SDS011;38340;52.964;6.086;2022-10-17T01:49:05;12.35;;;6.88;;
52414;SDS011;38340;52.964;6.086;2022-10-17T01:51:38;10.90;;;6.80;;
52414;SDS011;38340;52.964;6.086;2022-10-17T01:54:12;10.13;;;6.50;;
52414;SDS011;38340;52.964;6.086;2022-10-17T01:56:54;12.27;;;6.60;;
52414;SDS011;38340;52.964;6.086;2022-10-17T01:59:24;9.68;;;6.63;;
52414;SDS011;38340;52.964;6.086;2022-10-17T02:01:56;11.13;;;7.18;;
52414;SDS011;38340;52.964;6.086;2022-10-17T02:04:23;12.32;;;7.93;;
52414;SDS011;38340;52.964;6.086;2022-10-17T02:06:50;13.18;;;8.02;;
52414;SDS011;38340;52.964;6.086;2022-10-17T02:09:17;17.08;;;7.72;;
52414;SDS011;38340;52.964;6.086;2022-10-17T02:11:51;13.13;;;7.95;;
52414;SDS011;38340;52.964;6.086;2022-10-17T02:14:37;10.35;;;8.00;;
52414;SDS011;38340;52.964;6.086;2022-10-17T02:17:21;12.50;;;7.38;;
52414;SDS011;38340;52.964;6.086;2022-10-17T02:27:51;12.68;;;8.50;;
52414;SDS011;38340;52.964;6.086;2022-10-17T02:30:35;12.55;;;9.27;;
52414;SDS011;38340;52.964;6.086;2022-10-17T02:33:32;13.57;;;9.90;;
52414;SDS011;38340;52.964;6.086;2022-10-17T02:36:05;12.77;;;10.07;;
52414;SDS011;38340;52.964;6.086;2022-10-17T02:38:38;15.90;;;10.13;;
52414;SDS011;38340;52.964;6.086;2022-10-17T02:41:06;16.85;;;10.50;;
52414;SDS011;38340;52.964;6.086;2022-10-17T02:43:35;18.73;;;11.35;;
52414;SDS011;38340;52.964;6.086;2022-10-17T02:46:02;19.02;;;12.20;;
52414;SDS011;38340;52.964;6.086;2022-10-17T02:48:39;22.17;;;11.20;;
52414;SDS011;38340;52.964;6.086;2022-10-17T02:56:18;17.92;;;12.07;;
52414;SDS011;38340;52.964;6.086;2022-10-17T02:58:45;19.80;;;12.52;;
52414;SDS011;38340;52.964;6.086;2022-10-17T03:01:15;21.17;;;13.00;;
52414;SDS011;38340;52.964;6.086;2022-10-17T03:03:42;19.60;;;13.35;;
52414;SDS011;38340;52.964;6.086;2022-10-17T03:06:08;13.63;;;11.68;;
52414;SDS011;38340;52.964;6.086;2022-10-17T03:08:33;16.38;;;13.05;;
52414;SDS011;38340;52.964;6.086;2022-10-17T03:10:59;16.27;;;12.25;;
52414;SDS011;38340;52.964;6.086;2022-10-17T03:13:25;16.25;;;12.73;;
52414;SDS011;38340;52.964;6.086;2022-10-17T03:15:50;20.35;;;13.80;;
52414;SDS011;38340;52.964;6.086;2022-10-17T03:18:16;16.85;;;12.82;;
52414;SDS011;38340;52.964;6.086;2022-10-17T03:20:42;17.17;;;13.40;;
52414;SDS011;38340;52.964;6.086;2022-10-17T03:23:07;19.27;;;13.60;;
52414;SDS011;38340;52.964;6.086;2022-10-17T03:25:33;16.00;;;13.13;;
52414;SDS011;38340;52.964;6.086;2022-10-17T03:27:59;20.77;;;14.02;;
52414;SDS011;38340;52.964;6.086;2022-10-17T03:30:26;19.17;;;14.10;;
52414;SDS011;38340;52.964;6.086;2022-10-17T03:32:52;19.15;;;14.45;;
52414;SDS011;38340;52.964;6.086;2022-10-17T03:35:18;20.75;;;14.23;;
52414;SDS011;38340;52.964;6.086;2022-10-17T03:37:44;22.67;;;15.25;;
52414;SDS011;38340;52.964;6.086;2022-10-17T03:40:09;25.02;;;15.70;;
52414;SDS011;38340;52.964;6.086;2022-10-17T03:42:35;18.92;;;15.10;;
52414;SDS011;38340;52.964;6.086;2022-10-17T03:45:01;23.08;;;15.30;;
52414;SDS011;38340;52.964;6.086;2022-10-17T03:47:27;20.48;;;14.93;;
52414;SDS011;38340;52.964;6.086;2022-10-17T03:49:53;27.00;;;16.25;;
52414;SDS011;38340;52.964;6.086;2022-10-17T03:52:18;21.20;;;16.55;;
52414;SDS011;38340;52.964;6.086;2022-10-17T03:54:44;21.92;;;15.25;;
52414;SDS011;38340;52.964;6.086;2022-10-17T03:57:10;23.58;;;16.52;;
52414;SDS011;38340;52.964;6.086;2022-10-17T03:59:35;21.33;;;15.10;;
52414;SDS011;38340;52.964;6.086;2022-10-17T04:02:01;22.38;;;16.35;;
52414;SDS011;38340;52.964;6.086;2022-10-17T04:04:27;23.23;;;15.88;;
52414;SDS011;38340;52.964;6.086;2022-10-17T04:06:52;20.60;;;16.20;;
52414;SDS011;38340;52.964;6.086;2022-10-17T04:09:18;23.20;;;16.42;;
52414;SDS011;38340;52.964;6.086;2022-10-17T04:11:44;22.10;;;14.85;;
52414;SDS011;38340;52.964;6.086;2022-10-17T04:14:09;23.65;;;16.10;;
52414;SDS011;38340;52.964;6.086;2022-10-17T04:16:35;21.85;;;15.77;;
52414;SDS011;38340;52.964;6.086;2022-10-17T04:19:01;20.83;;;15.68;;
52414;SDS011;38340;52.964;6.086;2022-10-17T04:21:27;24.73;;;16.05;;
52414;SDS011;38340;52.964;6.086;2022-10-17T04:23:57;20.85;;;15.95;;
52414;SDS011;38340;52.964;6.086;2022-10-17T04:26:24;25.30;;;16.92;;
52414;SDS011;38340;52.964;6.086;2022-10-17T04:28:50;24.60;;;17.17;;
52414;SDS011;38340;52.964;6.086;2022-10-17T04:31:16;24.80;;;16.58;;
52414;SDS011;38340;52.964;6.086;2022-10-17T04:33:42;22.38;;;16.48;;
52414;SDS011;38340;52.964;6.086;2022-10-17T04:36:12;23.52;;;16.20;;
52414;SDS011;38340;52.964;6.086;2022-10-17T04:38:40;23.30;;;16.48;;
52414;SDS011;38340;52.964;6.086;2022-10-17T04:41:07;21.35;;;15.52;;
52414;SDS011;38340;52.964;6.086;2022-10-17T04:43:36;25.17;;;16.95;;
52414;SDS011;38340;52.964;6.086;2022-10-17T04:46:03;21.30;;;16.25;;
52414;SDS011;38340;52.964;6.086;2022-10-17T04:48:31;33.03;;;17.42;;
52414;SDS011;38340;52.964;6.086;2022-10-17T04:51:04;27.38;;;17.42;;
52414;SDS011;38340;52.964;6.086;2022-10-17T04:53:40;22.70;;;16.38;;
52414;SDS011;38340;52.964;6.086;2022-10-17T04:56:08;22.35;;;16.05;;
52414;SDS011;38340;52.964;6.086;2022-10-17T04:58:36;27.00;;;16.42;;
52414;SDS011;38340;52.964;6.086;2022-10-17T05:01:06;21.95;;;16.17;;
52414;SDS011;38340;52.964;6.086;2022-10-17T05:03:33;23.02;;;16.58;;
52414;SDS011;38340;52.964;6.086;2022-10-17T05:06:06;22.63;;;16.48;;
52414;SDS011;38340;52.964;6.086;2022-10-17T05:08:34;22.30;;;16.77;;
52414;SDS011;38340;52.964;6.086;2022-10-17T05:11:00;25.85;;;18.42;;
52414;SDS011;38340;52.964;6.086;2022-10-17T05:13:26;23.92;;;16.80;;
52414;SDS011;38340;52.964;6.086;2022-10-17T05:15:52;23.42;;;16.50;;
52414;SDS011;38340;52.964;6.086;2022-10-17T05:18:18;20.88;;;15.63;;
52414;SDS011;38340;52.964;6.086;2022-10-17T05:20:43;35.13;;;16.45;;
52414;SDS011;38340;52.964;6.086;2022-10-17T05:23:09;24.73;;;16.67;;
52414;SDS011;38340;52.964;6.086;2022-10-17T05:25:35;20.35;;;15.52;;
52414;SDS011;38340;52.964;6.086;2022-10-17T05:28:00;23.25;;;17.25;;
52414;SDS011;38340;52.964;6.086;2022-10-17T05:30:26;27.63;;;15.98;;
52414;SDS011;38340;52.964;6.086;2022-10-17T05:32:52;23.48;;;16.95;;
52414;SDS011;38340;52.964;6.086;2022-10-17T05:35:19;22.23;;;16.05;;
52414;SDS011;38340;52.964;6.086;2022-10-17T05:37:45;20.00;;;14.35;;
52414;SDS011;38340;52.964;6.086;2022-10-17T05:40:11;23.80;;;15.30;;
52414;SDS011;38340;52.964;6.086;2022-10-17T05:42:36;22.10;;;15.18;;
52414;SDS011;38340;52.964;6.086;2022-10-17T05:45:02;19.58;;;15.25;;
52414;SDS011;38340;52.964;6.086;2022-10-17T05:47:29;19.85;;;14.25;;
52414;SDS011;38340;52.964;6.086;2022-10-17T05:49:54;24.17;;;15.15;;
52414;SDS011;38340;52.964;6.086;2022-10-17T05:52:20;20.42;;;14.98;;
52414;SDS011;38340;52.964;6.086;2022-10-17T05:54:46;18.95;;;14.07;;
52414;SDS011;38340;52.964;6.086;2022-10-17T05:57:11;25.55;;;14.85;;
52414;SDS011;38340;52.964;6.086;2022-10-17T05:59:37;21.83;;;13.63;;
52414;SDS011;38340;52.964;6.086;2022-10-17T06:02:03;18.98;;;13.82;;
52414;SDS011;38340;52.964;6.086;2022-10-17T06:04:28;19.38;;;14.70;;
52414;SDS011;38340;52.964;6.086;2022-10-17T06:06:54;18.60;;;13.77;;
52414;SDS011;38340;52.964;6.086;2022-10-17T06:09:20;20.35;;;13.95;;
52414;SDS011;38340;52.964;6.086;2022-10-17T06:11:47;17.00;;;13.65;;
52414;SDS011;38340;52.964;6.086;2022-10-17T06:14:12;19.02;;;14.02;;
52414;SDS011;38340;52.964;6.086;2022-10-17T06:16:38;18.02;;;13.15;;
52414;SDS011;38340;52.964;6.086;2022-10-17T06:19:04;17.02;;;12.68;;
52414;SDS011;38340;52.964;6.086;2022-10-17T06:21:29;15.65;;;12.27;;
52414;SDS011;38340;52.964;6.086;2022-10-17T06:23:58;16.15;;;12.85;;
52414;SDS011;38340;52.964;6.086;2022-10-17T06:26:24;17.88;;;11.32;;
52414;SDS011;38340;52.964;6.086;2022-10-17T06:28:50;18.48;;;11.95;;
52414;SDS011;38340;52.964;6.086;2022-10-17T06:31:15;19.33;;;12.18;;
52414;SDS011;38340;52.964;6.086;2022-10-17T06:33:41;17.27;;;11.40;;
52414;SDS011;38340;52.964;6.086;2022-10-17T06:36:08;19.48;;;11.52;;
52414;SDS011;38340;52.964;6.086;2022-10-17T06:38:36;17.48;;;11.43;;
52414;SDS011;38340;52.964;6.086;2022-10-17T06:41:10;15.07;;;10.60;;
52414;SDS011;38340;52.964;6.086;2022-10-17T06:43:38;16.17;;;10.93;;
52414;SDS011;38340;52.964;6.086;2022-10-17T06:46:07;16.63;;;11.45;;
52414;SDS011;38340;52.964;6.086;2022-10-17T06:48:33;13.93;;;10.43;;
52414;SDS011;38340;52.964;6.086;2022-10-17T06:51:00;16.98;;;10.85;;
52414;SDS011;38340;52.964;6.086;2022-10-17T06:53:27;17.63;;;10.95;;
52414;SDS011;38340;52.964;6.086;2022-10-17T06:55:53;15.82;;;10.90;;
52414;SDS011;38340;52.964;6.086;2022-10-17T06:58:22;14.52;;;10.98;;
52414;SDS011;38340;52.964;6.086;2022-10-17T07:00:48;14.90;;;10.18;;
52414;SDS011;38340;52.964;6.086;2022-10-17T07:03:13;16.40;;;10.48;;
52414;SDS011;38340;52.964;6.086;2022-10-17T07:05:39;14.60;;;10.52;;
52414;SDS011;38340;52.964;6.086;2022-10-17T07:08:05;14.98;;;10.27;;
52414;SDS011;38340;52.964;6.086;2022-10-17T07:10:31;13.77;;;10.13;;
52414;SDS011;38340;52.964;6.086;2022-10-17T07:13:02;17.92;;;10.43;;
52414;SDS011;38340;52.964;6.086;2022-10-17T07:15:28;17.17;;;10.65;;
52414;SDS011;38340;52.964;6.086;2022-10-17T07:17:53;16.15;;;10.18;;
52414;SDS011;38340;52.964;6.086;2022-10-17T07:20:19;13.65;;;9.82;;
52414;SDS011;38340;52.964;6.086;2022-10-17T07:22:45;13.95;;;10.68;;
52414;SDS011;38340;52.964;6.086;2022-10-17T07:25:10;13.25;;;9.77;;
52414;SDS011;38340;52.964;6.086;2022-10-17T07:27:36;16.00;;;10.50;;
52414;SDS011;38340;52.964;6.086;2022-10-17T07:30:02;13.95;;;9.05;;
52414;SDS011;38340;52.964;6.086;2022-10-17T07:32:28;12.93;;;9.20;;
52414;SDS011;38340;52.964;6.086;2022-10-17T07:34:53;12.43;;;8.85;;
52414;SDS011;38340;52.964;6.086;2022-10-17T07:37:19;13.95;;;10.05;;
52414;SDS011;38340;52.964;6.086;2022-10-17T07:39:45;18.27;;;9.95;;
52414;SDS011;38340;52.964;6.086;2022-10-17T07:42:10;13.43;;;9.90;;
52414;SDS011;38340;52.964;6.086;2022-10-17T07:44:36;13.80;;;9.73;;
52414;SDS011;38340;52.964;6.086;2022-10-17T07:47:02;12.10;;;9.52;;
52414;SDS011;38340;52.964;6.086;2022-10-17T07:49:28;15.32;;;10.15;;
52414;SDS011;38340;52.964;6.086;2022-10-17T07:51:54;13.25;;;10.05;;
52414;SDS011;38340;52.964;6.086;2022-10-17T07:54:19;14.00;;;9.30;;
52414;SDS011;38340;52.964;6.086;2022-10-17T07:56:45;13.18;;;9.60;;
52414;SDS011;38340;52.964;6.086;2022-10-17T07:59:15;13.43;;;8.85;;
52414;SDS011;38340;52.964;6.086;2022-10-17T08:01:41;10.25;;;8.82;;
52414;SDS011;38340;52.964;6.086;2022-10-17T08:04:07;11.88;;;9.20;;
52414;SDS011;38340;52.964;6.086;2022-10-17T08:06:33;11.88;;;9.52;;
52414;SDS011;38340;52.964;6.086;2022-10-17T08:08:58;16.90;;;9.55;;
52414;SDS011;38340;52.964;6.086;2022-10-17T08:11:25;11.15;;;9.48;;
52414;SDS011;38340;52.964;6.086;2022-10-17T08:13:51;12.93;;;9.57;;
52414;SDS011;38340;52.964;6.086;2022-10-17T08:16:17;12.55;;;9.32;;
52414;SDS011;38340;52.964;6.086;2022-10-17T08:18:43;14.95;;;9.73;;
52414;SDS011;38340;52.964;6.086;2022-10-17T08:21:09;12.65;;;9.43;;
52414;SDS011;38340;52.964;6.086;2022-10-17T08:23:37;12.57;;;9.73;;
52414;SDS011;38340;52.964;6.086;2022-10-17T08:26:04;12.88;;;9.32;;
52414;SDS011;38340;52.964;6.086;2022-10-17T08:28:34;17.02;;;9.25;;
52414;SDS011;38340;52.964;6.086;2022-10-17T08:31:03;13.18;;;9.65;;
52414;SDS011;38340;52.964;6.086;2022-10-17T08:33:30;16.02;;;10.15;;
52414;SDS011;38340;52.964;6.086;2022-10-17T08:35:58;11.18;;;9.55;;
52414;SDS011;38340;52.964;6.086;2022-10-17T08:38:24;13.50;;;9.95;;
52414;SDS011;38340;52.964;6.086;2022-10-17T08:40:52;13.30;;;9.45;;
52414;SDS011;38340;52.964;6.086;2022-10-17T08:46:11;14.20;;;8.90;;
52414;SDS011;38340;52.964;6.086;2022-10-17T08:48:39;13.02;;;9.93;;
52414;SDS011;38340;52.964;6.086;2022-10-17T08:51:18;15.80;;;9.70;;
52414;SDS011;38340;52.964;6.086;2022-10-17T08:53:50;14.40;;;9.05;;
52414;SDS011;38340;52.964;6.086;2022-10-17T08:56:26;13.45;;;9.45;;
52414;SDS011;38340;52.964;6.086;2022-10-17T08:58:57;14.07;;;9.50;;
52414;SDS011;38340;52.964;6.086;2022-10-17T09:01:39;13.68;;;10.20;;
52414;SDS011;38340;52.964;6.086;2022-10-17T09:07:18;12.52;;;10.23;;
52414;SDS011;38340;52.964;6.086;2022-10-17T09:16:23;15.02;;;10.27;;
52414;SDS011;38340;52.964;6.086;2022-10-17T09:24:05;15.90;;;10.32;;
52414;SDS011;38340;52.964;6.086;2022-10-17T09:26:39;12.68;;;10.43;;
52414;SDS011;38340;52.964;6.086;2022-10-17T09:29:11;16.88;;;10.43;;
52414;SDS011;38340;52.964;6.086;2022-10-17T09:31:42;17.05;;;11.75;;
52414;SDS011;38340;52.964;6.086;2022-10-17T09:34:13;15.85;;;11.30;;
52414;SDS011;38340;52.964;6.086;2022-10-17T09:36:40;15.50;;;11.05;;
52414;SDS011;38340;52.964;6.086;2022-10-17T09:41:54;17.98;;;11.75;;
52414;SDS011;38340;52.964;6.086;2022-10-17T09:44:23;19.38;;;10.45;;
52414;SDS011;38340;52.964;6.086;2022-10-17T09:49:39;14.97;;;10.33;;
52414;SDS011;38340;52.964;6.086;2022-10-17T09:52:11;17.55;;;11.27;;
52414;SDS011;38340;52.964;6.086;2022-10-17T09:54:50;18.60;;;12.05;;
52414;SDS011;38340;52.964;6.086;2022-10-17T09:57:19;15.73;;;11.23;;
52414;SDS011;38340;52.964;6.086;2022-10-17T09:59:46;15.77;;;12.02;;
52414;SDS011;38340;52.964;6.086;2022-10-17T10:02:29;14.88;;;11.27;;
52414;SDS011;38340;52.964;6.086;2022-10-17T10:04:58;18.30;;;11.18;;
52414;SDS011;38340;52.964;6.086;2022-10-17T10:07:25;15.43;;;11.60;;
52414;SDS011;38340;52.964;6.086;2022-10-17T10:09:53;16.90;;;10.93;;
52414;SDS011;38340;52.964;6.086;2022-10-17T10:12:21;15.02;;;11.20;;
52414;SDS011;38340;52.964;6.086;2022-10-17T10:14:48;16.88;;;11.95;;
52414;SDS011;38340;52.964;6.086;2022-10-17T10:19:58;16.13;;;11.55;;
52414;SDS011;38340;52.964;6.086;2022-10-17T10:22:23;15.50;;;11.63;;
52414;SDS011;38340;52.964;6.086;2022-10-17T10:25:05;15.60;;;10.95;;
52414;SDS011;38340;52.964;6.086;2022-10-17T10:30:01;14.93;;;10.80;;
52414;SDS011;38340;52.964;6.086;2022-10-17T10:32:32;16.95;;;11.30;;
52414;SDS011;38340;52.964;6.086;2022-10-17T10:37:52;16.75;;;11.50;;
52414;SDS011;38340;52.964;6.086;2022-10-17T10:40:22;19.23;;;11.40;;
52414;SDS011;38340;52.964;6.086;2022-10-17T10:42:58;18.70;;;11.50;;
52414;SDS011;38340;52.964;6.086;2022-10-17T10:45:26;16.42;;;11.52;;
52414;SDS011;38340;52.964;6.086;2022-10-17T10:48:17;14.60;;;10.70;;
52414;SDS011;38340;52.964;6.086;2022-10-17T10:50:46;16.45;;;11.73;;
52414;SDS011;38340;52.964;6.086;2022-10-17T10:56:29;15.98;;;12.23;;
52414;SDS011;38340;52.964;6.086;2022-10-17T11:04:50;16.83;;;11.65;;
52414;SDS011;38340;52.964;6.086;2022-10-17T11:12:50;17.27;;;11.00;;
52414;SDS011;38340;52.964;6.086;2022-10-17T11:15:22;17.60;;;11.95;;
52414;SDS011;38340;52.964;6.086;2022-10-17T11:18:00;18.88;;;12.27;;
52414;SDS011;38340;52.964;6.086;2022-10-17T11:23:16;15.70;;;11.75;;
52414;SDS011;38340;52.964;6.086;2022-10-17T11:25:49;17.65;;;12.77;;
52414;SDS011;38340;52.964;6.086;2022-10-17T11:28:19;19.63;;;12.38;;
52414;SDS011;38340;52.964;6.086;2022-10-17T11:30:52;16.52;;;11.73;;
52414;SDS011;38340;52.964;6.086;2022-10-17T11:36:11;14.82;;;10.55;;
52414;SDS011;38340;52.964;6.086;2022-10-17T11:38:45;18.52;;;11.07;;
52414;SDS011;38340;52.964;6.086;2022-10-17T11:41:38;18.60;;;11.15;;
52414;SDS011;38340;52.964;6.086;2022-10-17T11:49:44;13.07;;;8.27;;
52414;SDS011;38340;52.964;6.086;2022-10-17T11:54:50;11.73;;;8.93;;
52414;SDS011;38340;52.964;6.086;2022-10-17T12:05:32;12.32;;;7.05;;
52414;SDS011;38340;52.964;6.086;2022-10-17T12:08:08;9.77;;;7.25;;
52414;SDS011;38340;52.964;6.086;2022-10-17T12:10:57;9.30;;;6.93;;
52414;SDS011;38340;52.964;6.086;2022-10-17T12:19:10;8.00;;;5.95;;
52414;SDS011;38340;52.964;6.086;2022-10-17T12:24:43;13.55;;;5.43;;
52414;SDS011;38340;52.964;6.086;2022-10-17T12:35:28;6.95;;;4.32;;
52414;SDS011;38340;52.964;6.086;2022-10-17T12:40:58;6.95;;;5.03;;
52414;SDS011;38340;52.964;6.086;2022-10-17T12:45:53;6.97;;;4.45;;
52414;SDS011;38340;52.964;6.086;2022-10-17T12:56:21;8.57;;;4.50;;
52414;SDS011;38340;52.964;6.086;2022-10-17T12:59:06;8.15;;;5.20;;
52414;SDS011;38340;52.964;6.086;2022-10-17T13:01:41;9.45;;;6.43;;
52414;SDS011;38340;52.964;6.086;2022-10-17T13:04:10;8.70;;;6.00;;
52414;SDS011;38340;52.964;6.086;2022-10-17T13:06:44;8.07;;;5.50;;
52414;SDS011;38340;52.964;6.086;2022-10-17T13:09:23;12.95;;;5.80;;
52414;SDS011;38340;52.964;6.086;2022-10-17T13:11:55;8.55;;;5.72;;
52414;SDS011;38340;52.964;6.086;2022-10-17T13:14:23;6.72;;;4.93;;
52414;SDS011;38340;52.964;6.086;2022-10-17T13:16:54;10.02;;;5.22;;
52414;SDS011;38340;52.964;6.086;2022-10-17T13:19:26;9.73;;;5.28;;
52414;SDS011;38340;52.964;6.086;2022-10-17T13:21:55;8.82;;;5.88;;
52414;SDS011;38340;52.964;6.086;2022-10-17T13:24:37;8.77;;;6.30;;
52414;SDS011;38340;52.964;6.086;2022-10-17T13:27:05;11.80;;;7.45;;
52414;SDS011;38340;52.964;6.086;2022-10-17T13:29:46;12.50;;;7.72;;
52414;SDS011;38340;52.964;6.086;2022-10-17T13:32:12;13.75;;;7.85;;
52414;SDS011;38340;52.964;6.086;2022-10-17T13:34:38;13.35;;;8.77;;
52414;SDS011;38340;52.964;6.086;2022-10-17T13:37:04;11.32;;;7.53;;
52414;SDS011;38340;52.964;6.086;2022-10-17T13:39:33;11.52;;;5.93;;
52414;SDS011;38340;52.964;6.086;2022-10-17T13:42:04;8.82;;;4.70;;
52414;SDS011;38340;52.964;6.086;2022-10-17T13:44:33;8.27;;;3.92;;
52414;SDS011;38340;52.964;6.086;2022-10-17T13:46:59;7.15;;;4.38;;
52414;SDS011;38340;52.964;6.086;2022-10-17T13:49:33;5.43;;;3.22;;
52414;SDS011;38340;52.964;6.086;2022-10-17T13:52:03;6.05;;;3.20;;
52414;SDS011;38340;52.964;6.086;2022-10-17T13:54:38;5.75;;;3.47;;
52414;SDS011;38340;52.964;6.086;2022-10-17T13:57:16;7.55;;;3.55;;
52414;SDS011;38340;52.964;6.086;2022-10-17T13:59:50;4.57;;;3.17;;
52414;SDS011;38340;52.964;6.086;2022-10-17T14:02:30;7.55;;;3.30;;
52414;SDS011;38340;52.964;6.086;2022-10-17T14:10:04;4.35;;;2.53;;
52414;SDS011;38340;52.964;6.086;2022-10-17T14:12:41;4.47;;;2.75;;
52414;SDS011;38340;52.964;6.086;2022-10-17T14:15:08;6.25;;;3.30;;
52414;SDS011;38340;52.964;6.086;2022-10-17T14:17:38;5.97;;;3.20;;
52414;SDS011;38340;52.964;6.086;2022-10-17T14:20:05;4.45;;;2.80;;
52414;SDS011;38340;52.964;6.086;2022-10-17T14:22:33;3.92;;;2.72;;
52414;SDS011;38340;52.964;6.086;2022-10-17T14:25:00;6.57;;;3.22;;
52414;SDS011;38340;52.964;6.086;2022-10-17T14:29:59;6.15;;;3.53;;
52414;SDS011;38340;52.964;6.086;2022-10-17T14:32:29;4.70;;;2.70;;
52414;SDS011;38340;52.964;6.086;2022-10-17T14:34:58;5.40;;;2.75;;
52414;SDS011;38340;52.964;6.086;2022-10-17T14:37:43;6.97;;;2.92;;
52414;SDS011;38340;52.964;6.086;2022-10-17T14:40:30;6.63;;;3.38;;
52414;SDS011;38340;52.964;6.086;2022-10-17T14:42:58;6.18;;;3.10;;
52414;SDS011;38340;52.964;6.086;2022-10-17T14:45:31;6.63;;;2.75;;
52414;SDS011;38340;52.964;6.086;2022-10-17T14:48:03;7.40;;;3.90;;
52414;SDS011;38340;52.964;6.086;2022-10-17T14:50:35;5.45;;;3.40;;
52414;SDS011;38340;52.964;6.086;2022-10-17T14:53:21;5.78;;;2.90;;
52414;SDS011;38340;52.964;6.086;2022-10-17T14:55:54;5.80;;;3.25;;
52414;SDS011;38340;52.964;6.086;2022-10-17T14:58:25;6.40;;;2.90;;
52414;SDS011;38340;52.964;6.086;2022-10-17T15:00:53;7.18;;;3.20;;
52414;SDS011;38340;52.964;6.086;2022-10-17T15:03:19;8.15;;;3.58;;
52414;SDS011;38340;52.964;6.086;2022-10-17T15:05:45;9.02;;;3.42;;
52414;SDS011;38340;52.964;6.086;2022-10-17T15:08:12;6.13;;;3.58;;
52414;SDS011;38340;52.964;6.086;2022-10-17T15:10:39;8.68;;;3.67;;
52414;SDS011;38340;52.964;6.086;2022-10-17T15:13:08;8.77;;;3.65;;
52414;SDS011;38340;52.964;6.086;2022-10-17T15:15:35;4.53;;;3.40;;
52414;SDS011;38340;52.964;6.086;2022-10-17T15:18:02;6.35;;;3.70;;
52414;SDS011;38340;52.964;6.086;2022-10-17T15:20:28;6.97;;;3.30;;
52414;SDS011;38340;52.964;6.086;2022-10-17T15:22:55;6.53;;;3.45;;
52414;SDS011;38340;52.964;6.086;2022-10-17T15:25:22;6.70;;;3.70;;
52414;SDS011;38340;52.964;6.086;2022-10-17T15:27:49;5.10;;;3.45;;
52414;SDS011;38340;52.964;6.086;2022-10-17T15:30:17;4.55;;;3.13;;
52414;SDS011;38340;52.964;6.086;2022-10-17T15:32:48;9.23;;;4.10;;
52414;SDS011;38340;52.964;6.086;2022-10-17T15:35:14;9.77;;;5.38;;
52414;SDS011;38340;52.964;6.086;2022-10-17T15:37:41;5.50;;;4.47;;
52414;SDS011;38340;52.964;6.086;2022-10-17T15:40:20;7.68;;;4.47;;
52414;SDS011;38340;52.964;6.086;2022-10-17T15:42:52;6.03;;;4.00;;
52414;SDS011;38340;52.964;6.086;2022-10-17T15:45:18;5.60;;;4.03;;
52414;SDS011;38340;52.964;6.086;2022-10-17T15:47:56;7.75;;;4.18;;
52414;SDS011;38340;52.964;6.086;2022-10-17T15:50:26;7.20;;;5.00;;
52414;SDS011;38340;52.964;6.086;2022-10-17T15:52:54;9.30;;;4.40;;
52414;SDS011;38340;52.964;6.086;2022-10-17T15:55:20;8.90;;;5.38;;
52414;SDS011;38340;52.964;6.086;2022-10-17T15:57:46;7.85;;;5.60;;
52414;SDS011;38340;52.964;6.086;2022-10-17T16:00:14;6.93;;;5.20;;
52414;SDS011;38340;52.964;6.086;2022-10-17T16:02:45;10.27;;;6.28;;
52414;SDS011;38340;52.964;6.086;2022-10-17T16:05:16;18.60;;;14.50;;
52414;SDS011;38340;52.964;6.086;2022-10-17T16:07:43;49.55;;;39.13;;
52414;SDS011;38340;52.964;6.086;2022-10-17T16:10:13;14.13;;;10.05;;
52414;SDS011;38340;52.964;6.086;2022-10-17T16:12:39;12.90;;;7.90;;
52414;SDS011;38340;52.964;6.086;2022-10-17T16:15:15;14.70;;;9.85;;
52414;SDS011;38340;52.964;6.086;2022-10-17T16:17:52;8.65;;;7.25;;
52414;SDS011;38340;52.964;6.086;2022-10-17T16:20:20;8.98;;;5.80;;
52414;SDS011;38340;52.964;6.086;2022-10-17T16:22:47;12.80;;;8.90;;
52414;SDS011;38340;52.964;6.086;2022-10-17T16:27:51;11.45;;;7.55;;
52414;SDS011;38340;52.964;6.086;2022-10-17T16:30:18;12.57;;;7.60;;
52414;SDS011;38340;52.964;6.086;2022-10-17T16:32:45;13.05;;;8.05;;
52414;SDS011;38340;52.964;6.086;2022-10-17T16:35:15;12.27;;;9.32;;
52414;SDS011;38340;52.964;6.086;2022-10-17T16:37:43;7.65;;;6.13;;
52414;SDS011;38340;52.964;6.086;2022-10-17T16:40:09;8.50;;;6.35;;
52414;SDS011;38340;52.964;6.086;2022-10-17T16:42:35;11.10;;;6.30;;
52414;SDS011;38340;52.964;6.086;2022-10-17T16:45:01;11.55;;;7.43;;
52414;SDS011;38340;52.964;6.086;2022-10-17T16:47:26;10.30;;;7.32;;
52414;SDS011;38340;52.964;6.086;2022-10-17T16:49:52;13.07;;;7.47;;
52414;SDS011;38340;52.964;6.086;2022-10-17T16:52:17;12.23;;;7.82;;
52414;SDS011;38340;52.964;6.086;2022-10-17T16:54:43;14.02;;;8.27;;
52414;SDS011;38340;52.964;6.086;2022-10-17T16:57:09;13.18;;;8.18;;
52414;SDS011;38340;52.964;6.086;2022-10-17T16:59:35;11.68;;;9.10;;
52414;SDS011;38340;52.964;6.086;2022-10-17T17:02:00;13.80;;;9.50;;